createdAt,value
2018-07-28T00:01:55.578Z,7.40
2018-07-28T00:04:22.998Z,7.20
2018-07-28T00:06:50.463Z,7.70
2018-07-28T00:09:17.959Z,7.30
2018-07-28T00:11:45.411Z,7.93
2018-07-28T00:14:12.933Z,7.43
2018-07-28T00:16:40.388Z,7.63
2018-07-28T00:19:07.942Z,7.27
2018-07-28T00:21:35.374Z,7.83
2018-07-28T00:24:02.927Z,7.90
2018-07-28T00:26:30.360Z,7.80
2018-07-28T00:28:57.777Z,7.40
2018-07-28T00:31:25.323Z,6.70
2018-07-28T00:33:52.831Z,7.87
2018-07-28T00:36:20.254Z,6.73
2018-07-28T00:38:47.696Z,7.47
2018-07-28T00:41:15.215Z,8.20
2018-07-28T00:43:42.696Z,8.00
2018-07-28T00:46:10.236Z,7.67
2018-07-28T00:48:37.648Z,7.43
2018-07-28T00:51:05.183Z,7.53
2018-07-28T00:53:32.663Z,6.93
2018-07-28T00:56:00.092Z,7.67
2018-07-28T00:58:27.523Z,7.33
2018-07-28T01:00:54.956Z,7.40
2018-07-28T01:03:22.380Z,7.07
2018-07-28T01:05:49.803Z,7.20
2018-07-28T01:08:17.218Z,7.73
2018-07-28T01:10:44.655Z,7.10
2018-07-28T01:13:12.126Z,6.60
2018-07-28T01:15:39.605Z,6.80
2018-07-28T01:18:07.056Z,7.23
2018-07-28T01:20:34.491Z,7.67
2018-07-28T01:23:02.020Z,7.40
2018-07-28T01:25:29.477Z,8.40
2018-07-28T01:27:56.895Z,7.83
2018-07-28T01:30:27.651Z,7.20
2018-07-28T01:32:55.196Z,8.20
2018-07-28T01:35:22.650Z,7.43
2018-07-28T01:37:50.084Z,7.90
2018-07-28T01:40:17.584Z,7.63
2018-07-28T01:42:44.992Z,7.63
2018-07-28T01:45:12.443Z,8.30
2018-07-28T01:47:39.855Z,7.80
2018-07-28T01:50:08.123Z,7.43
2018-07-28T01:52:35.617Z,7.27
2018-07-28T01:55:03.095Z,6.70
2018-07-28T01:57:30.542Z,7.00
2018-07-28T01:59:58.024Z,6.77
2018-07-28T02:02:25.487Z,7.23
2018-07-28T02:04:52.923Z,7.07
2018-07-28T02:07:20.431Z,7.00
2018-07-28T02:09:47.860Z,6.93
2018-07-28T02:12:15.278Z,6.97
2018-07-28T02:14:42.684Z,7.00
2018-07-28T02:17:10.133Z,7.67
2018-07-28T02:19:37.578Z,6.10
2018-07-28T02:22:05.026Z,7.10
2018-07-28T02:24:32.468Z,6.90
2018-07-28T02:26:59.896Z,6.67
2018-07-28T02:29:27.375Z,6.40
2018-07-28T02:31:54.863Z,6.80
2018-07-28T02:34:22.301Z,6.93
2018-07-28T02:36:49.752Z,7.37
2018-07-28T02:39:17.206Z,7.50
2018-07-28T02:41:44.679Z,7.20
2018-07-28T02:44:12.106Z,7.63
2018-07-28T02:46:39.551Z,9.40
2018-07-28T02:49:07.175Z,9.20
2018-07-28T02:51:34.603Z,9.40
2018-07-28T02:54:02.132Z,9.60
2018-07-28T02:56:29.560Z,8.90
2018-07-28T02:58:57.015Z,9.30
2018-07-28T03:01:24.471Z,9.33
2018-07-28T03:03:51.995Z,8.33
2018-07-28T03:06:19.516Z,10.33
2018-07-28T03:08:47.050Z,9.47
2018-07-28T03:11:14.504Z,9.07
2018-07-28T03:13:42.088Z,9.67
2018-07-28T03:16:11.152Z,9.37
2018-07-28T03:18:38.606Z,9.43
2018-07-28T03:21:06.079Z,9.27
2018-07-28T03:23:33.524Z,9.47
2018-07-28T03:26:01.036Z,9.90
2018-07-28T03:28:28.522Z,9.10
2018-07-28T03:30:55.963Z,9.57
2018-07-28T03:33:29.016Z,9.60
2018-07-28T03:35:56.451Z,10.00
2018-07-28T03:38:23.956Z,10.50
2018-07-28T03:40:51.420Z,9.73
2018-07-28T03:43:18.913Z,8.97
2018-07-28T03:45:46.384Z,8.83
2018-07-28T03:48:13.864Z,10.33
2018-07-28T03:50:41.397Z,8.63
2018-07-28T03:53:08.841Z,9.73
2018-07-28T03:55:36.335Z,8.47
2018-07-28T03:58:03.791Z,8.37
2018-07-28T04:00:31.260Z,8.90
2018-07-28T04:05:42.292Z,8.07
2018-07-28T04:08:13.006Z,8.40
2018-07-28T04:10:47.059Z,8.20
2018-07-28T04:13:19.444Z,7.77
2018-07-28T04:15:48.551Z,7.67
2018-07-28T04:18:22.260Z,8.20
2018-07-28T04:20:53.135Z,7.70
2018-07-28T04:23:20.595Z,8.33
2018-07-28T04:25:51.681Z,7.90
2018-07-28T04:28:20.418Z,8.40
2018-07-28T04:30:47.717Z,7.77
2018-07-28T04:33:14.951Z,8.77
2018-07-28T04:35:42.191Z,8.67
2018-07-28T04:38:09.439Z,8.17
2018-07-28T04:40:36.751Z,7.93
2018-07-28T04:43:04.002Z,7.80
2018-07-28T04:45:31.234Z,8.20
2018-07-28T04:47:58.460Z,8.50
2018-07-28T04:50:25.770Z,7.83
2018-07-28T04:52:53.005Z,7.90
2018-07-28T04:55:20.230Z,7.83
2018-07-28T04:57:47.459Z,8.30
2018-07-28T05:00:14.707Z,8.67
2018-07-28T05:02:41.955Z,8.20
2018-07-28T05:05:09.195Z,7.77
2018-07-28T05:07:36.519Z,8.17
2018-07-28T05:10:03.860Z,7.87
2018-07-28T05:12:31.100Z,7.97
2018-07-28T05:14:58.420Z,7.40
2018-07-28T05:17:25.638Z,8.13
2018-07-28T05:19:52.855Z,8.23
2018-07-28T05:22:20.192Z,8.37
2018-07-28T05:24:47.527Z,8.40
2018-07-28T05:27:14.768Z,7.80
2018-07-28T05:29:42.027Z,7.50
2018-07-28T05:32:09.226Z,7.40
2018-07-28T05:34:36.504Z,7.87
2018-07-28T05:37:03.843Z,7.93
2018-07-28T05:39:31.159Z,7.20
2018-07-28T05:41:58.571Z,7.20
2018-07-28T05:44:26.003Z,7.87
2018-07-28T05:46:53.500Z,7.67
2018-07-28T05:49:21.030Z,8.17
2018-07-28T05:51:48.493Z,7.77
2018-07-28T05:54:16.000Z,7.33
2018-07-28T05:56:43.433Z,8.47
2018-07-28T05:59:10.855Z,7.50
2018-07-28T06:01:38.323Z,8.83
2018-07-28T06:04:05.810Z,8.50
2018-07-28T06:06:33.225Z,9.00
2018-07-28T06:09:00.736Z,8.00
2018-07-28T06:11:28.199Z,8.10
2018-07-28T06:13:55.679Z,8.17
2018-07-28T06:16:23.147Z,8.30
2018-07-28T06:18:50.605Z,8.27
2018-07-28T06:21:18.056Z,7.70
2018-07-28T06:23:45.492Z,7.87
2018-07-28T06:26:12.932Z,9.00
2018-07-28T06:28:40.376Z,8.57
2018-07-28T06:31:07.845Z,7.40
2018-07-28T06:33:35.384Z,7.80
2018-07-28T06:36:02.934Z,9.20
2018-07-28T06:38:30.385Z,8.80
2018-07-28T06:40:57.855Z,7.03
2018-07-28T06:43:25.290Z,8.20
2018-07-28T06:45:52.718Z,8.10
2018-07-28T06:48:20.236Z,8.80
2018-07-28T06:50:47.800Z,8.10
2018-07-28T06:53:15.223Z,8.57
2018-07-28T06:55:42.791Z,7.53
2018-07-28T06:58:10.264Z,7.33
2018-07-28T07:00:37.705Z,8.43
2018-07-28T07:03:05.180Z,8.87
2018-07-28T07:05:32.639Z,8.40
2018-07-28T07:08:00.024Z,8.57
2018-07-28T07:10:27.365Z,8.50
2018-07-28T07:12:54.848Z,8.13
2018-07-28T07:15:22.187Z,8.87
2018-07-28T07:17:49.571Z,7.37
2018-07-28T07:20:16.923Z,7.60
2018-07-28T07:22:44.328Z,7.67
2018-07-28T07:25:11.867Z,8.37
2018-07-28T07:27:39.284Z,8.20
2018-07-28T07:30:06.801Z,7.87
2018-07-28T07:32:34.264Z,7.53
2018-07-28T07:35:01.652Z,8.80
2018-07-28T07:37:39.922Z,7.83
2018-07-28T07:40:07.245Z,8.10
2018-07-28T07:42:34.432Z,7.57
2018-07-28T07:45:01.669Z,8.13
2018-07-28T07:47:28.935Z,9.70
2018-07-28T07:49:56.217Z,10.87
2018-07-28T07:52:23.565Z,9.77
2018-07-28T07:54:50.959Z,11.83
2018-07-28T07:57:18.315Z,11.23
2018-07-28T07:59:45.671Z,13.93
2018-07-28T08:02:13.073Z,13.50
2018-07-28T08:04:40.448Z,13.17
2018-07-28T08:07:07.783Z,15.00
2018-07-28T08:09:35.237Z,16.43
2018-07-28T08:12:02.604Z,16.57
2018-07-28T08:14:30.037Z,17.80
2018-07-28T08:16:57.411Z,17.70
2018-07-28T08:19:24.777Z,17.27
2018-07-28T08:21:52.152Z,16.73
2018-07-28T08:24:19.679Z,16.03
2018-07-28T08:26:47.075Z,17.57
2018-07-28T08:29:14.413Z,17.20
2018-07-28T08:31:41.895Z,19.47
2018-07-28T08:34:09.278Z,17.73
2018-07-28T08:36:36.751Z,17.00
2018-07-28T08:39:07.831Z,16.20
2018-07-28T08:41:35.191Z,15.30
2018-07-28T08:44:02.800Z,14.77
2018-07-28T08:46:30.166Z,16.03
2018-07-28T08:48:57.605Z,14.73
2018-07-28T08:51:24.947Z,16.63
2018-07-28T08:53:52.355Z,15.30
2018-07-28T08:56:19.708Z,15.17
2018-07-28T08:58:47.056Z,14.70
2018-07-28T09:01:14.568Z,15.47
2018-07-28T09:03:43.080Z,14.40
2018-07-28T09:06:10.444Z,14.43
2018-07-28T09:08:37.795Z,15.87
2018-07-28T09:11:05.228Z,16.10
2018-07-28T09:13:32.593Z,16.03
2018-07-28T09:15:59.956Z,15.60
2018-07-28T09:18:27.320Z,18.47
2018-07-28T09:20:54.675Z,19.97
2018-07-28T09:23:22.062Z,19.33
2018-07-28T09:25:49.436Z,19.13
2018-07-28T09:28:16.832Z,20.60
2018-07-28T09:30:44.386Z,20.70
2018-07-28T09:33:11.712Z,20.47
2018-07-28T09:35:39.069Z,21.07
2018-07-28T09:38:06.447Z,19.60
2018-07-28T09:40:33.904Z,20.30
2018-07-28T09:43:01.259Z,23.63
2018-07-28T09:45:28.624Z,22.97
2018-07-28T09:47:57.055Z,22.37
2018-07-28T09:50:24.458Z,20.40
2018-07-28T09:52:51.816Z,19.83
2018-07-28T09:55:19.167Z,18.37
2018-07-28T09:57:46.544Z,17.73
2018-07-28T10:00:21.679Z,17.23
2018-07-28T10:02:49.056Z,16.07
2018-07-28T10:05:16.467Z,15.30
2018-07-28T10:07:43.864Z,16.73
2018-07-28T10:10:11.224Z,14.80
2018-07-28T10:12:38.605Z,15.60
2018-07-28T10:15:06.081Z,15.20
2018-07-28T10:17:33.648Z,15.40
2018-07-28T10:20:01.168Z,16.10
2018-07-28T10:22:28.637Z,15.93
2018-07-28T10:24:55.992Z,15.87
2018-07-28T10:27:23.392Z,15.93
2018-07-28T10:29:50.883Z,16.30
2018-07-28T10:32:18.231Z,16.17
2018-07-28T10:34:45.607Z,13.67
2018-07-28T10:37:12.971Z,15.10
2018-07-28T10:39:40.439Z,14.97
2018-07-28T10:42:07.870Z,15.13
2018-07-28T10:44:35.203Z,15.10
2018-07-28T10:47:02.639Z,14.53
2018-07-28T10:49:29.979Z,14.37
2018-07-28T10:51:57.441Z,15.70
2018-07-28T10:54:24.726Z,14.83
2018-07-28T10:56:52.215Z,14.50
2018-07-28T10:59:19.600Z,16.00
2018-07-28T11:01:47.009Z,15.67
2018-07-28T11:04:14.380Z,14.90
2018-07-28T11:06:41.822Z,15.10
2018-07-28T11:09:09.685Z,14.70
2018-07-28T11:11:37.228Z,14.27
2018-07-28T11:14:06.692Z,15.70
2018-07-28T11:16:34.076Z,13.03
2018-07-28T11:19:01.515Z,14.60
2018-07-28T11:21:28.895Z,12.13
2018-07-28T11:23:57.660Z,13.30
2018-07-28T11:26:25.093Z,13.37
2018-07-28T11:28:53.223Z,12.60
2018-07-28T11:31:32.967Z,11.83
2018-07-28T11:34:12.024Z,12.30
2018-07-28T11:36:51.136Z,12.40
2018-07-28T11:39:30.121Z,13.60
2018-07-28T11:42:08.893Z,12.90
2018-07-28T11:44:47.631Z,11.77
2018-07-28T11:47:14.826Z,11.50
2018-07-28T11:49:42.459Z,12.10
2018-07-28T11:52:09.607Z,11.90
2018-07-28T11:54:36.776Z,11.63
2018-07-28T11:57:04.121Z,10.13
2018-07-28T11:59:31.481Z,10.80
2018-07-28T12:01:58.869Z,10.30
2018-07-28T12:04:26.212Z,9.17
2018-07-28T12:06:53.567Z,9.60
2018-07-28T12:09:20.938Z,10.57
2018-07-28T12:11:48.325Z,8.80
2018-07-28T12:14:15.796Z,8.10
2018-07-28T12:16:43.156Z,8.00
2018-07-28T12:19:10.516Z,6.90
2018-07-28T12:21:37.936Z,6.70
2018-07-28T12:24:05.423Z,7.60
2018-07-28T12:26:32.707Z,5.40
2018-07-28T12:29:00.198Z,5.40
2018-07-28T12:31:27.612Z,5.00
2018-07-28T12:33:54.988Z,5.80
2018-07-28T12:36:22.447Z,4.70
2018-07-28T12:38:49.920Z,5.70
2018-07-28T12:41:17.308Z,10.70
2018-07-28T12:43:44.690Z,6.30
2018-07-28T12:46:12.045Z,5.53
2018-07-28T12:48:39.446Z,9.37
2018-07-28T12:51:06.823Z,13.10
2018-07-28T12:53:34.334Z,6.00
2018-07-28T12:56:01.712Z,20.00
2018-07-28T12:58:29.100Z,10.00
2018-07-28T13:00:56.475Z,6.63
2018-07-28T13:03:23.823Z,7.77
2018-07-28T13:05:51.163Z,4.73
2018-07-28T13:08:18.528Z,5.20
2018-07-28T13:10:45.911Z,5.90
2018-07-28T13:13:13.387Z,5.47
2018-07-28T13:15:40.751Z,5.70
2018-07-28T13:18:08.155Z,5.83
2018-07-28T13:20:35.612Z,5.60
2018-07-28T13:23:02.986Z,6.67
2018-07-28T13:25:30.355Z,6.20
2018-07-28T13:27:57.743Z,5.50
2018-07-28T13:30:25.129Z,6.43
2018-07-28T13:32:52.508Z,6.27
2018-07-28T13:35:19.895Z,5.80
2018-07-28T13:37:47.253Z,7.60
2018-07-28T13:40:14.631Z,7.20
2018-07-28T13:42:41.959Z,6.47
2018-07-28T13:45:09.463Z,6.70
2018-07-28T13:47:36.803Z,6.47
2018-07-28T13:50:04.191Z,7.30
2018-07-28T13:52:31.600Z,7.17
2018-07-28T13:54:58.923Z,7.93
2018-07-28T13:57:26.311Z,7.43
2018-07-28T13:59:53.748Z,6.80
2018-07-28T14:02:21.111Z,7.30
2018-07-28T14:04:48.484Z,7.27
2018-07-28T14:07:15.855Z,8.70
2018-07-28T14:09:43.362Z,7.00
2018-07-28T14:12:10.827Z,7.57
2018-07-28T14:14:38.207Z,7.83
2018-07-28T14:17:05.660Z,6.53
2018-07-28T14:19:33.040Z,7.50
2018-07-28T14:22:00.371Z,7.33
2018-07-28T14:24:27.739Z,8.07
2018-07-28T14:26:55.113Z,8.10
2018-07-28T14:29:22.527Z,7.57
2018-07-28T14:31:49.903Z,6.93
2018-07-28T14:34:17.258Z,7.17
2018-07-28T14:36:44.599Z,6.90
2018-07-28T14:39:12.020Z,7.03
2018-07-28T14:41:39.399Z,7.27
2018-07-28T14:44:06.859Z,6.50
2018-07-28T14:46:34.239Z,6.57
2018-07-28T14:49:01.690Z,5.50
2018-07-28T14:51:29.088Z,6.23
2018-07-28T14:53:56.438Z,5.70
2018-07-28T14:56:23.800Z,5.57
2018-07-28T14:58:51.256Z,5.50
2018-07-28T15:01:18.667Z,4.90
2018-07-28T15:03:46.000Z,6.10
2018-07-28T15:06:13.427Z,5.73
2018-07-28T15:08:40.840Z,5.40
2018-07-28T15:11:08.227Z,5.37
2018-07-28T15:13:35.571Z,5.10
2018-07-28T15:16:03.057Z,5.53
2018-07-28T15:18:30.439Z,5.43
2018-07-28T15:20:57.831Z,5.53
2018-07-28T15:23:25.202Z,6.00
2018-07-28T15:25:52.654Z,5.50
2018-07-28T15:28:20.008Z,5.63
2018-07-28T15:30:47.396Z,6.07
2018-07-28T15:33:14.756Z,6.03
2018-07-28T15:35:42.132Z,5.30
2018-07-28T15:38:09.535Z,5.20
2018-07-28T15:40:36.897Z,5.90
2018-07-28T15:43:04.291Z,5.00
2018-07-28T15:45:31.671Z,5.10
2018-07-28T15:47:59.004Z,5.00
2018-07-28T15:50:26.383Z,5.47
2018-07-28T15:52:53.926Z,4.80
2018-07-28T15:55:21.284Z,5.30
2018-07-28T15:57:48.663Z,4.90
2018-07-28T16:00:17.545Z,6.87
2018-07-28T16:02:45.640Z,5.60
2018-07-28T16:05:13.015Z,6.00
2018-07-28T16:07:40.369Z,5.90
2018-07-28T16:10:07.708Z,5.80
2018-07-28T16:12:35.148Z,5.60
2018-07-28T16:15:02.547Z,5.33
2018-07-28T16:17:29.911Z,5.37
2018-07-28T16:19:57.444Z,5.93
2018-07-28T16:22:24.861Z,6.23
2018-07-28T16:24:52.300Z,5.63
2018-07-28T16:27:19.608Z,6.70
2018-07-28T16:29:46.992Z,6.40
2018-07-28T16:32:14.424Z,6.33
2018-07-28T16:34:41.780Z,6.37
2018-07-28T16:37:09.129Z,6.33
2018-07-28T16:39:36.486Z,6.90
2018-07-28T16:42:04.008Z,7.90
2018-07-28T16:44:31.371Z,8.13
2018-07-28T16:46:58.752Z,7.10
2018-07-28T16:49:26.111Z,7.27
2018-07-28T16:51:53.460Z,8.13
2018-07-28T16:54:20.813Z,7.50
2018-07-28T16:56:48.159Z,8.10
2018-07-28T16:59:15.487Z,7.17
2018-07-28T17:01:42.981Z,8.73
2018-07-28T17:04:10.462Z,7.07
2018-07-28T17:06:37.948Z,8.17
2018-07-28T17:09:07.472Z,9.27
2018-07-28T17:11:34.961Z,8.70
2018-07-28T17:14:02.472Z,9.37
2018-07-28T17:16:29.784Z,7.87
2018-07-28T17:18:57.261Z,8.67
2018-07-28T17:21:24.432Z,8.97
2018-07-28T17:23:51.676Z,9.03
2018-07-28T17:26:18.845Z,8.53
2018-07-28T17:28:46.016Z,9.33
2018-07-28T17:31:13.189Z,7.97
2018-07-28T17:33:40.351Z,9.50
2018-07-28T17:36:07.551Z,8.40
2018-07-28T17:38:34.868Z,8.40
2018-07-28T17:41:02.192Z,9.10
2018-07-28T17:43:29.315Z,9.87
2018-07-28T17:45:56.544Z,9.57
2018-07-28T17:48:24.852Z,10.27
2018-07-28T17:50:52.139Z,11.20
2018-07-28T17:53:19.485Z,11.67
2018-07-28T17:55:46.616Z,13.10
2018-07-28T17:58:13.902Z,14.27
2018-07-28T18:00:41.035Z,15.40
2018-07-28T18:03:08.311Z,15.47
2018-07-28T18:05:35.490Z,17.37
2018-07-28T18:08:02.720Z,17.70
2018-07-28T18:10:30.019Z,16.47
2018-07-28T18:12:57.205Z,19.03
2018-07-28T18:15:24.372Z,18.40
2018-07-28T18:17:51.539Z,18.87
2018-07-28T18:20:20.773Z,17.33
2018-07-28T18:22:47.941Z,17.70
2018-07-28T18:25:15.311Z,20.97
2018-07-28T18:27:42.500Z,20.73
2018-07-28T18:30:09.696Z,20.40
2018-07-28T18:32:36.888Z,19.80
2018-07-28T18:35:04.971Z,21.13
2018-07-28T18:37:32.173Z,19.07
2018-07-28T18:39:59.356Z,19.97
2018-07-28T18:42:26.509Z,20.30
2018-07-28T18:44:53.760Z,22.60
2018-07-28T18:47:21.000Z,20.43
2018-07-28T18:49:48.187Z,19.87
2018-07-28T18:52:15.503Z,19.60
2018-07-28T18:54:42.650Z,19.97
2018-07-28T18:57:09.944Z,19.07
2018-07-28T18:59:37.182Z,20.43
2018-07-28T19:02:04.391Z,21.20
2018-07-28T19:04:34.791Z,20.60
2018-07-28T19:07:02.122Z,22.23
2018-07-28T19:09:35.057Z,21.53
2018-07-28T19:12:04.704Z,21.60
2018-07-28T19:14:37.685Z,20.40
2018-07-28T19:17:05.361Z,20.63
2018-07-28T19:19:32.610Z,22.10
2018-07-28T19:22:02.897Z,21.77
2018-07-28T19:24:30.070Z,24.30
2018-07-28T19:26:58.364Z,23.17
2018-07-28T19:29:33.670Z,22.10
2018-07-28T19:32:09.287Z,22.23
2018-07-28T19:34:42.894Z,22.67
2018-07-28T19:37:16.705Z,24.90
2018-07-28T19:39:43.883Z,26.43
2018-07-28T19:42:16.884Z,29.27
2018-07-28T19:44:44.068Z,24.40
2018-07-28T19:47:11.257Z,23.20
2018-07-28T19:49:38.432Z,27.03
2018-07-28T19:52:05.598Z,25.03
2018-07-28T19:54:32.773Z,25.10
2018-07-28T19:56:59.940Z,26.80
2018-07-28T19:59:27.987Z,27.13
2018-07-28T20:01:55.207Z,25.40
2018-07-28T20:04:22.393Z,24.90
2018-07-28T20:06:49.702Z,26.90
2018-07-28T20:09:16.816Z,30.60
2018-07-28T20:11:43.979Z,28.20
2018-07-28T20:14:11.178Z,26.80
2018-07-28T20:16:38.518Z,27.40
2018-07-28T20:19:06.005Z,26.97
2018-07-28T20:21:33.171Z,29.00
2018-07-28T20:24:00.335Z,26.77
2018-07-28T20:26:27.566Z,26.97
2018-07-28T20:28:54.715Z,25.57
2018-07-28T20:31:21.915Z,28.97
2018-07-28T20:33:49.113Z,30.37
2018-07-28T20:36:16.355Z,28.87
2018-07-28T20:38:43.578Z,26.90
2018-07-28T20:41:10.829Z,28.63
2018-07-28T20:43:37.995Z,28.70
2018-07-28T20:46:05.182Z,29.10
2018-07-28T20:48:32.343Z,28.87
2018-07-28T20:50:59.499Z,29.60
2018-07-28T20:53:26.675Z,28.90
2018-07-28T20:55:54.053Z,29.80
2018-07-28T20:58:21.432Z,29.20
2018-07-28T21:00:48.878Z,29.10
2018-07-28T21:03:16.244Z,30.40
2018-07-28T21:05:43.605Z,27.93
2018-07-28T21:08:10.992Z,29.70
2018-07-28T21:10:38.340Z,28.00
2018-07-28T21:13:05.752Z,29.40
2018-07-28T21:15:33.107Z,29.70
2018-07-28T21:18:00.458Z,31.23
2018-07-28T21:20:27.861Z,29.47
2018-07-28T21:22:55.199Z,29.40
2018-07-28T21:25:22.708Z,27.73
2018-07-28T21:27:50.036Z,28.50
2018-07-28T21:30:17.528Z,28.90
2018-07-28T21:32:44.875Z,29.90
2018-07-28T21:35:12.339Z,28.40
2018-07-28T21:37:39.695Z,29.50
2018-07-28T21:40:07.099Z,30.50
2018-07-28T21:42:34.456Z,28.43
2018-07-28T21:45:01.905Z,28.80
2018-07-28T21:47:29.261Z,27.50
2018-07-28T21:49:56.628Z,30.00
2018-07-28T21:52:23.995Z,28.73
2018-07-28T21:54:51.660Z,27.87
2018-07-28T21:57:19.130Z,28.57
2018-07-28T21:59:46.477Z,29.87
2018-07-28T22:02:13.825Z,29.17
2018-07-28T22:04:42.442Z,30.97
2018-07-28T22:07:09.896Z,29.30
2018-07-28T22:09:37.371Z,31.60
2018-07-28T22:12:04.845Z,26.13
2018-07-28T22:14:32.200Z,26.67
2018-07-28T22:16:59.560Z,26.00
2018-07-28T22:19:26.931Z,25.37
2018-07-28T22:21:54.390Z,23.30
2018-07-28T22:24:21.803Z,25.07
2018-07-28T22:26:49.184Z,23.90
2018-07-28T22:29:16.558Z,23.00
2018-07-28T22:31:43.993Z,22.87
2018-07-28T22:34:11.347Z,22.60
2018-07-28T22:36:38.695Z,23.60
2018-07-28T22:39:07.744Z,22.30
2018-07-28T22:41:35.207Z,21.73
2018-07-28T22:44:02.647Z,23.60
2018-07-28T22:46:30.057Z,22.27
2018-07-28T22:48:57.545Z,21.57
2018-07-28T22:51:24.981Z,21.50
2018-07-28T22:53:52.423Z,21.53
2018-07-28T22:56:19.769Z,21.83
2018-07-28T22:58:47.219Z,20.93
2018-07-28T23:01:14.617Z,20.90
2018-07-28T23:03:41.940Z,20.03
2018-07-28T23:06:09.331Z,21.10
2018-07-28T23:08:36.656Z,20.10
2018-07-28T23:11:04.023Z,20.10
2018-07-28T23:13:31.375Z,20.97
2018-07-28T23:15:58.776Z,19.80
2018-07-28T23:18:26.116Z,19.63
2018-07-28T23:20:53.888Z,19.60
2018-07-28T23:23:21.387Z,20.23
2018-07-28T23:25:48.787Z,20.40
2018-07-28T23:28:16.127Z,21.20
2018-07-28T23:30:43.487Z,20.13
2018-07-28T23:33:10.851Z,20.13
2018-07-28T23:35:38.224Z,20.50
2018-07-28T23:38:05.584Z,20.67
2018-07-28T23:40:33.324Z,21.10
2018-07-28T23:43:00.697Z,20.80
2018-07-28T23:45:28.052Z,19.73
2018-07-28T23:47:55.419Z,20.77
2018-07-28T23:50:22.764Z,21.30
2018-07-28T23:52:50.120Z,21.83
2018-07-28T23:55:17.480Z,22.10
2018-07-28T23:57:44.948Z,22.03
